Time;durP1;ratioP1;P1;durP2;ratioP2;P2;SDS_P1;SDS_P2;PMS_P1;PMS_P2;Temp;Humidity;BMP_temperature;BMP_pressure;BME280_temperature;BME280_humidity;BME280_pressure;Samples;Min_cycle;Max_cycle;Signal;HPM_P1;HPM_P2
2022/02/08 00:00:08;;;;;;;9.07;2.70;;;3.00;99.90;;;;;;5096661;28;20390;-55
2022/02/08 00:02:37;;;;;;;7.40;2.47;;;1.90;99.90;;;;;;5097790;28;20576;-55
2022/02/08 00:05:06;;;;;;;6.55;2.63;;;3.10;99.90;;;;;;5094622;28;20400;-55
2022/02/08 00:07:32;;;;;;;9.57;2.20;;;1.90;99.90;;;;;;5086735;28;20404;-55
2022/02/08 00:09:58;;;;;;;9.55;2.17;;;1.90;99.90;;;;;;5099634;28;20377;-56
2022/02/08 00:12:24;;;;;;;8.10;2.10;;;1.40;99.90;;;;;;5101160;28;20801;-55
2022/02/08 00:14:51;;;;;;;7.40;2.47;;;1.90;99.90;;;;;;5097828;28;20382;-55
2022/02/08 00:17:16;;;;;;;6.70;1.80;;;2.00;99.90;;;;;;5087649;28;20890;-55
2022/02/08 00:19:42;;;;;;;6.53;1.90;;;2.10;99.90;;;;;;5088769;28;20406;-55
2022/02/08 00:22:08;;;;;;;8.07;1.87;;;2.20;99.90;;;;;;5087898;28;20404;-55
2022/02/08 00:24:33;;;;;;;8.13;2.28;;;2.30;99.90;;;;;;5081819;28;20407;-55
2022/02/08 00:27:00;;;;;;;9.53;1.90;;;2.40;99.90;;;;;;5075770;28;20910;-55
2022/02/08 00:29:26;;;;;;;6.25;1.90;;;2.40;99.90;;;;;;5071820;28;20407;-55
2022/02/08 00:31:51;;;;;;;8.63;2.20;;;2.40;99.90;;;;;;5072113;28;21008;-55
2022/02/08 00:34:18;;;;;;;11.20;1.90;;;2.40;99.90;;;;;;5078581;28;20435;-55
2022/02/08 00:36:44;;;;;;;7.20;1.80;;;2.50;99.90;;;;;;5087644;28;20397;-55
2022/02/08 00:39:11;;;;;;;6.47;1.70;;;2.00;99.90;;;;;;5092232;28;20393;-55
2022/02/08 00:41:37;;;;;;;8.65;1.65;;;2.60;99.90;;;;;;5091729;28;20393;-55
2022/02/08 00:44:10;;;;;;;6.60;1.70;;;2.60;99.90;;;;;;5092114;28;20867;-56
2022/02/08 00:49:04;;;;;;;9.53;2.30;;;3.00;99.90;;;;;;5091872;28;20393;-55
2022/02/08 00:51:39;;;;;;;8.95;1.70;;;2.70;99.90;;;;;;5084881;28;20402;-56
2022/02/08 00:54:05;;;;;;;7.57;2.10;;;2.70;99.90;;;;;;5073983;28;20434;-56
2022/02/08 00:56:31;;;;;;;9.23;2.08;;;3.20;99.90;;;;;;5070868;28;21044;-56
2022/02/08 00:58:57;;;;;;;8.27;2.20;;;2.30;99.90;;;;;;5070879;28;20375;-56
2022/02/08 01:01:22;;;;;;;8.43;2.40;;;2.50;99.90;;;;;;5071354;28;20396;-56
2022/02/08 01:03:48;;;;;;;8.53;2.40;;;2.70;99.90;;;;;;5070583;28;20470;-56
2022/02/08 01:06:16;;;;;;;6.43;1.70;;;2.40;99.90;;;;;;5071543;28;20781;-56
2022/02/08 01:08:41;;;;;;;8.20;1.80;;;2.70;99.90;;;;;;5070592;28;20884;-55
2022/02/08 01:11:10;;;;;;;6.60;1.80;;;2.50;99.90;;;;;;5071433;28;20440;-56
2022/02/08 01:13:38;;;;;;;8.95;1.98;;;2.50;99.90;;;;;;5071129;28;20384;-55
2022/02/08 01:16:05;;;;;;;8.20;1.88;;;2.50;99.90;;;;;;5070480;28;20396;-56
2022/02/08 01:18:32;;;;;;;7.70;2.15;;;2.50;99.90;;;;;;5070060;28;20753;-56
2022/02/08 01:20:58;;;;;;;10.27;1.90;;;2.40;99.90;;;;;;5070127;28;20493;-56
2022/02/08 01:23:24;;;;;;;10.93;1.95;;;2.40;99.90;;;;;;5070825;28;20481;-55
2022/02/08 01:25:54;;;;;;;8.47;1.60;;;2.40;99.90;;;;;;5070251;28;20388;-56
2022/02/08 01:28:30;;;;;;;6.90;1.83;;;2.40;99.90;;;;;;5071286;28;20387;-55
2022/02/08 01:31:00;;;;;;;6.50;2.10;;;2.40;99.90;;;;;;5070507;28;20465;-55
2022/02/08 01:38:59;;;;;;;6.90;1.57;;;2.50;99.90;;;;;;5069837;28;20412;-56
2022/02/08 01:49:28;;;;;;;8.83;2.00;;;2.70;99.90;;;;;;5070561;28;20382;-56
2022/02/08 01:51:55;;;;;;;7.53;1.88;;;2.80;99.90;;;;;;5069579;28;20528;-56
2022/02/08 01:54:22;;;;;;;7.40;1.38;;;2.40;99.90;;;;;;5070692;28;20380;-56
2022/02/08 01:56:49;;;;;;;8.00;1.90;;;2.90;99.90;;;;;;5070113;28;20845;-55
2022/02/08 01:59:16;;;;;;;8.48;2.00;;;2.90;99.90;;;;;;5070376;28;20384;-56
2022/02/08 02:01:41;;;;;;;7.05;1.60;;;2.90;99.90;;;;;;5069614;28;20497;-56
2022/02/08 02:04:07;;;;;;;5.85;1.20;;;3.10;99.90;;;;;;5070219;28;20416;-56
2022/02/08 02:06:34;;;;;;;5.77;1.50;;;3.10;99.90;;;;;;5070250;28;20376;-56
2022/02/08 02:08:59;;;;;;;7.60;1.60;;;3.30;99.90;;;;;;5069937;28;20398;-56
2022/02/08 02:11:25;;;;;;;8.35;1.98;;;2.90;99.90;;;;;;5070022;28;20383;-56
2022/02/08 02:13:51;;;;;;;9.80;2.20;;;2.90;99.90;;;;;;5069827;28;20384;-56
2022/02/08 02:16:23;;;;;;;9.43;1.70;;;2.80;99.90;;;;;;5070470;28;20495;-56
2022/02/08 02:18:49;;;;;;;7.60;1.60;;;3.00;99.90;;;;;;5069168;28;20410;-56
2022/02/08 02:21:16;;;;;;;10.27;2.00;;;2.80;99.90;;;;;;5070428;28;20400;-56
2022/02/08 02:23:49;;;;;;;5.82;1.83;;;2.80;99.90;;;;;;5076724;28;20409;-56
2022/02/08 02:26:15;;;;;;;10.68;1.80;;;4.00;99.90;;;;;;5082524;28;20469;-56
2022/02/08 02:28:41;;;;;;;9.20;1.50;;;2.80;99.90;;;;;;5070253;28;20473;-56
2022/02/08 02:31:07;;;;;;;7.15;1.67;;;2.80;99.90;;;;;;5069497;28;20412;-56
2022/02/08 02:33:32;;;;;;;7.15;1.70;;;2.90;99.90;;;;;;5069505;28;20380;-56
2022/02/08 02:35:58;;;;;;;6.77;1.37;;;2.90;99.90;;;;;;5069091;28;20447;-56
2022/02/08 02:38:24;;;;;;;6.13;1.58;;;2.90;99.90;;;;;;5075856;28;20453;-56
2022/02/08 02:40:52;;;;;;;10.27;1.80;;;2.60;99.90;;;;;;5075779;28;20420;-56
2022/02/08 02:43:18;;;;;;;6.57;1.70;;;2.40;99.90;;;;;;5090117;28;20381;-56
2022/02/08 02:45:44;;;;;;;8.15;1.90;;;3.30;99.90;;;;;;5089215;28;20874;-56
2022/02/08 02:48:10;;;;;;;10.27;1.80;;;2.70;99.90;;;;;;5090077;28;20382;-56
2022/02/08 02:50:36;;;;;;;9.43;1.63;;;2.90;99.90;;;;;;5090079;28;20378;-56
2022/02/08 02:53:02;;;;;;;9.50;2.22;;;2.40;99.90;;;;;;5087754;28;20470;-56
2022/02/08 02:55:32;;;;;;;11.93;1.60;;;2.80;99.90;;;;;;5090002;28;20863;-56
2022/02/08 02:57:58;;;;;;;5.83;1.50;;;2.70;99.90;;;;;;5089236;28;20394;-56
2022/02/08 03:00:49;;;;;;;6.63;1.20;;;2.80;99.90;;;;;;5089783;28;20382;-55
2022/02/08 03:19:21;;;;;;;7.00;1.40;;;3.10;99.90;;;;;;5089717;28;20459;-55
2022/02/08 03:21:47;;;;;;;7.33;1.30;;;3.60;99.90;;;;;;5087477;28;20413;-56
2022/02/08 03:24:13;;;;;;;6.70;1.80;;;3.30;99.90;;;;;;5089394;28;20851;-56
2022/02/08 03:26:38;;;;;;;7.68;1.98;;;3.40;99.90;;;;;;5089509;28;20400;-56
2022/02/08 03:29:04;;;;;;;6.10;1.50;;;3.40;99.90;;;;;;5088977;28;20381;-56
2022/02/08 03:31:30;;;;;;;6.73;1.40;;;3.40;99.90;;;;;;5089388;28;20942;-56
2022/02/08 03:33:56;;;;;;;7.78;1.70;;;3.40;99.90;;;;;;5088873;28;20378;-56
2022/02/08 03:36:21;;;;;;;9.63;1.90;;;3.30;99.90;;;;;;5089750;28;20815;-56
2022/02/08 03:38:59;;;;;;;5.67;1.80;;;3.20;99.90;;;;;;5089063;28;20815;-56
2022/02/08 03:41:24;;;;;;;9.90;2.00;;;3.10;99.90;;;;;;5089241;28;20405;-56
2022/02/08 03:43:51;;;;;;;5.47;1.33;;;3.20;99.90;;;;;;5091938;28;20785;-56
2022/02/08 03:46:21;;;;;;;8.80;1.73;;;2.60;99.90;;;;;;5092937;28;20477;-55
2022/02/08 03:48:47;;;;;;;10.88;1.85;;;3.10;99.90;;;;;;5092098;28;20382;-56
2022/02/08 03:51:16;;;;;;;7.20;1.80;;;3.20;99.90;;;;;;5092877;28;20442;-56
2022/02/08 03:53:44;;;;;;;8.77;2.10;;;3.20;99.90;;;;;;5092731;28;20378;-56
2022/02/08 03:56:15;;;;;;;9.73;1.85;;;2.70;99.90;;;;;;5092769;28;20374;-56
2022/02/08 03:58:40;;;;;;;8.60;1.90;;;3.20;99.90;;;;;;5092973;28;20478;-55
2022/02/08 04:03:44;;;;;;;6.47;1.55;;;3.30;99.90;;;;;;5076837;28;20395;-56
2022/02/08 04:06:10;;;;;;;6.57;1.60;;;3.20;99.90;;;;;;5074802;28;20407;-56
2022/02/08 04:08:36;;;;;;;8.27;2.10;;;3.30;99.90;;;;;;5085804;28;20846;-55
2022/02/08 04:11:01;;;;;;;8.63;1.58;;;3.30;99.90;;;;;;5074613;28;20525;-56
2022/02/08 04:13:44;;;;;;;8.82;1.70;;;3.40;99.90;;;;;;5083847;28;20449;-56
2022/02/08 04:16:26;;;;;;;5.67;1.50;;;3.40;99.90;;;;;;5077653;28;20494;-56
2022/02/08 04:19:08;;;;;;;8.48;1.80;;;3.40;99.90;;;;;;5090395;28;20878;-56
2022/02/08 04:33:42;;;;;;;8.65;2.00;;;3.50;99.90;;;;;;5091012;28;20450;-56
2022/02/08 04:43:26;;;;;;;7.20;2.10;;;3.30;99.90;;;;;;5071934;28;20415;-56
2022/02/08 04:45:58;;;;;;;6.82;1.58;;;3.50;99.90;;;;;;5071134;28;20399;-56
2022/02/08 04:48:48;;;;;;;7.25;2.00;;;3.30;99.90;;;;;;5072408;28;20419;-57
2022/02/08 04:51:40;;;;;;;7.68;1.70;;;3.30;99.90;;;;;;5081787;28;20443;-57
2022/02/08 04:54:48;;;;;;;8.90;1.70;;;3.30;99.90;;;;;;5091137;28;20390;-56
2022/02/08 04:57:04;;;;;;;8.43;1.52;;;3.30;99.90;;;;;;5083687;28;20398;-56
2022/02/08 05:47:45;;;;;;;8.80;1.88;;;3.60;99.90;;;;;;5083437;28;20400;-57
2022/02/08 05:55:26;;;;;;;6.60;1.70;;;4.50;99.90;;;;;;5081244;28;20384;-56
2022/02/08 05:57:52;;;;;;;10.45;1.50;;;4.10;99.90;;;;;;5072599;28;20445;-56
2022/02/08 06:00:19;;;;;;;6.60;1.83;;;3.70;99.90;;;;;;5074470;28;20775;-56
2022/02/08 06:02:48;;;;;;;7.25;1.70;;;3.80;99.90;;;;;;5073780;28;20509;-56
2022/02/08 06:05:18;;;;;;;6.10;1.50;;;4.80;99.90;;;;;;5084394;28;20389;-57
2022/02/08 06:07:44;;;;;;;6.87;1.97;;;3.90;99.90;;;;;;5087853;28;20397;-56
2022/02/08 06:10:09;;;;;;;8.30;1.95;;;3.80;99.90;;;;;;5087759;28;20398;-57
2022/02/08 06:12:51;;;;;;;10.70;2.10;;;3.90;99.90;;;;;;5088026;28;20409;-57
2022/02/08 06:15:20;;;;;;;9.30;2.40;;;3.90;99.90;;;;;;5088358;28;20402;-56
2022/02/08 06:17:46;;;;;;;9.68;1.90;;;3.90;99.90;;;;;;5089375;28;20378;-56
2022/02/08 06:20:13;;;;;;;7.28;1.60;;;4.00;99.90;;;;;;5088883;28;20400;-56
2022/02/08 06:22:41;;;;;;;10.32;2.40;;;4.00;99.90;;;;;;5090404;28;20454;-56
2022/02/08 06:25:10;;;;;;;7.22;2.05;;;3.90;99.90;;;;;;5088176;28;20853;-57
2022/02/08 06:27:35;;;;;;;9.10;2.28;;;3.90;99.90;;;;;;5080200;28;20393;-57
2022/02/08 06:30:01;;;;;;;8.30;2.00;;;3.30;99.90;;;;;;5082964;28;20382;-56
2022/02/08 06:32:28;;;;;;;10.48;2.40;;;3.80;99.90;;;;;;5076035;28;20403;-56
2022/02/08 06:34:56;;;;;;;12.50;2.38;;;3.90;99.90;;;;;;5067693;28;20391;-56
2022/02/08 06:37:24;;;;;;;10.20;2.55;;;3.80;99.90;;;;;;5068633;28;20399;-56
2022/02/08 06:39:50;;;;;;;10.48;2.30;;;3.90;99.90;;;;;;5068368;28;20388;-57
2022/02/08 06:42:15;;;;;;;6.90;2.00;;;3.70;99.90;;;;;;5069435;28;20419;-57
2022/02/08 06:44:41;;;;;;;10.13;2.40;;;4.80;99.90;;;;;;5069429;28;20370;-56
2022/02/08 06:47:07;;;;;;;8.43;1.80;;;4.50;99.90;;;;;;5068603;28;20423;-57
2022/02/08 06:49:33;;;;;;;11.15;2.13;;;3.70;99.90;;;;;;5069455;28;20384;-57
2022/02/08 06:51:59;;;;;;;12.63;2.30;;;3.40;99.90;;;;;;5107406;27;20408;-57
2022/02/08 06:54:24;;;;;;;9.80;2.38;;;3.90;99.90;;;;;;5069346;28;20429;-57
2022/02/08 06:56:50;;;;;;;10.53;2.20;;;3.90;99.90;;;;;;5080746;28;20406;-57
2022/02/08 06:59:18;;;;;;;11.50;2.33;;;3.90;99.90;;;;;;5089812;28;20727;-57
2022/02/08 07:01:45;;;;;;;9.07;2.30;;;4.00;99.90;;;;;;5089321;28;20798;-56
2022/02/08 07:04:14;;;;;;;9.52;2.20;;;3.90;99.90;;;;;;5086128;28;20405;-57
2022/02/08 07:06:44;;;;;;;10.30;2.27;;;3.80;99.90;;;;;;5086045;28;20398;-57
2022/02/08 07:09:12;;;;;;;8.70;2.42;;;3.80;99.90;;;;;;5088938;28;20382;-57
2022/02/08 07:11:38;;;;;;;10.63;2.88;;;3.90;99.90;;;;;;5089306;28;20397;-56
2022/02/08 07:14:05;;;;;;;12.15;2.30;;;4.00;99.90;;;;;;5088608;28;20511;-57
2022/02/08 07:16:31;;;;;;;8.48;1.90;;;4.20;99.90;;;;;;5089555;28;20393;-57
2022/02/08 07:18:57;;;;;;;7.93;1.80;;;4.10;99.90;;;;;;5092755;28;20401;-57
2022/02/08 07:21:23;;;;;;;8.63;2.70;;;4.10;99.90;;;;;;5092050;28;20405;-56
2022/02/08 07:23:49;;;;;;;7.90;2.00;;;5.00;99.90;;;;;;5092750;28;20397;-57
2022/02/08 07:26:14;;;;;;;9.55;2.20;;;4.10;99.90;;;;;;5093805;28;20435;-57
2022/02/08 07:28:44;;;;;;;10.40;2.45;;;4.20;99.90;;;;;;5093768;28;20378;-57
2022/02/08 07:31:37;;;;;;;12.73;2.40;;;4.20;99.90;;;;;;5085487;28;20431;-57
2022/02/08 07:34:12;;;;;;;8.65;1.80;;;4.30;99.90;;;;;;5072200;28;20864;-57
2022/02/08 07:39:04;;;;;;;7.30;2.10;;;4.40;99.90;;;;;;5075056;28;20889;-57
2022/02/08 07:41:37;;;;;;;7.32;2.03;;;5.50;99.90;;;;;;5092827;28;20409;-57
2022/02/08 07:44:05;;;;;;;8.70;3.35;;;3.90;99.90;;;;;;5092680;28;20409;-57
2022/02/08 07:46:31;;;;;;;9.82;1.83;;;4.60;99.90;;;;;;5093409;28;20415;-57
2022/02/08 07:48:57;;;;;;;9.38;2.20;;;4.70;99.90;;;;;;5092343;28;20769;-57
2022/02/08 07:51:24;;;;;;;9.10;2.00;;;4.70;99.90;;;;;;5089136;28;20390;-57
2022/02/08 07:53:49;;;;;;;8.30;1.90;;;4.70;99.90;;;;;;5076796;28;20395;-57
2022/02/08 07:56:16;;;;;;;10.00;2.05;;;4.10;99.90;;;;;;5089901;28;20374;-57
2022/02/08 07:58:42;;;;;;;9.10;1.77;;;4.80;99.90;;;;;;5091610;28;20406;-57
2022/02/08 08:01:08;;;;;;;8.93;1.80;;;5.10;99.90;;;;;;5092236;28;20384;-57
2022/02/08 08:03:37;;;;;;;6.57;1.90;;;4.90;99.90;;;;;;5093123;28;20390;-57
2022/02/08 08:06:03;;;;;;;7.50;2.00;;;5.00;99.90;;;;;;5091808;28;20779;-56
2022/02/08 08:08:29;;;;;;;10.13;1.83;;;5.10;99.90;;;;;;5085729;28;20488;-57
2022/02/08 08:10:54;;;;;;;7.47;1.85;;;5.20;99.90;;;;;;5089044;28;20826;-57
2022/02/08 08:13:22;;;;;;;12.70;2.00;;;5.10;99.90;;;;;;5077512;28;20394;-57
2022/02/08 08:15:53;;;;;;;11.63;2.15;;;5.20;99.90;;;;;;5079941;28;20879;-57
2022/02/08 08:18:34;;;;;;;8.43;1.90;;;5.30;99.90;;;;;;5086944;28;20493;-57
2022/02/08 08:21:00;;;;;;;10.32;2.50;;;4.90;99.90;;;;;;5071367;28;20387;-57
2022/02/08 08:23:25;;;;;;;11.82;2.15;;;5.30;99.90;;;;;;5072330;28;20418;-57
2022/02/08 08:25:51;;;;;;;10.30;2.00;;;5.30;99.90;;;;;;5071382;28;20380;-58
2022/02/08 08:28:17;;;;;;;10.40;2.60;;;5.30;99.90;;;;;;5076649;28;20387;-57
2022/02/08 08:30:43;;;;;;;12.30;2.50;;;5.20;99.90;;;;;;5085950;28;20400;-57
2022/02/08 08:33:08;;;;;;;8.70;2.30;;;5.20;99.90;;;;;;5091194;28;20740;-57
2022/02/08 08:35:35;;;;;;;9.83;2.10;;;5.20;99.90;;;;;;5092191;28;20381;-57
2022/02/08 08:38:04;;;;;;;6.40;1.80;;;5.30;99.90;;;;;;5090155;28;20864;-57
2022/02/08 08:51:16;;;;;;;6.80;2.20;;;7.30;99.90;;;;;;5082524;28;20386;-54
2022/02/08 08:53:43;;;;;;;7.15;1.77;;;6.30;99.90;;;;;;5102524;28;20390;-56
2022/02/08 08:56:09;;;;;;;8.87;2.30;;;6.00;99.90;;;;;;5085457;28;20897;-57
2022/02/08 08:58:36;;;;;;;7.25;1.60;;;6.10;99.90;;;;;;5088170;28;20492;-57
2022/02/08 09:01:03;;;;;;;8.93;1.70;;;6.00;99.90;;;;;;5098192;28;20392;-56
2022/02/08 09:03:29;;;;;;;9.68;2.00;;;5.90;99.90;;;;;;5112094;28;20380;-56
2022/02/08 09:05:55;;;;;;;8.37;1.70;;;5.70;99.90;;;;;;5110579;28;20521;-57
2022/02/08 09:08:22;;;;;;;10.65;2.10;;;5.70;99.90;;;;;;5111699;28;20381;-56
2022/02/08 09:10:59;;;;;;;9.75;1.80;;;6.20;99.90;;;;;;5111306;28;20792;-56
2022/02/08 09:13:41;;;;;;;9.43;2.00;;;6.60;99.90;;;;;;5106639;28;20397;-56
2022/02/08 09:16:57;;;;;;;9.10;1.53;;;;;;;;;;5090399;28;20494;-59
2022/02/08 09:29:34;;;;;;;11.43;3.15;;;11.50;99.90;;;;;;5089631;28;20491;-57
2022/02/08 09:32:11;;;;;;;9.30;2.80;;;11.20;99.90;;;;;;5087299;28;20734;-58
2022/02/08 09:34:41;;;;;;;8.55;3.08;;;10.70;99.90;;;;;;5077538;28;20404;-60
2022/02/08 09:37:07;;;;;;;13.63;3.50;;;10.90;99.90;;;;;;5077427;28;20482;-58
2022/02/08 09:39:32;;;;;;;10.60;3.17;;;11.10;99.90;;;;;;5083643;28;20429;-58
2022/02/08 09:42:01;;;;;;;8.30;2.90;;;11.10;99.90;;;;;;5087413;28;20498;-58
2022/02/08 09:44:31;;;;;;;11.35;3.55;;;11.50;99.90;;;;;;5097325;28;20839;-56
2022/02/08 09:47:05;;;;;;;8.55;4.10;;;12.30;99.90;;;;;;5097218;28;20408;-56
2022/02/08 09:49:32;;;;;;;10.48;7.25;;;12.50;99.90;;;;;;5089774;28;20402;-56
2022/02/08 09:52:00;;;;;;;10.48;2.60;;;13.50;99.90;;;;;;5090124;28;20405;-56
2022/02/08 09:54:30;;;;;;;15.90;2.70;;;12.80;99.90;;;;;;5088896;28;20909;-56
2022/02/08 09:56:56;;;;;;;8.93;2.22;;;13.20;99.90;;;;;;5104947;28;20380;-58
2022/02/08 09:59:22;;;;;;;11.43;9.20;;;13.10;99.90;;;;;;5110519;28;20452;-58
2022/02/08 10:01:52;;;;;;;9.33;6.63;;;12.90;99.90;;;;;;5110044;28;20414;-57
2022/02/08 10:04:17;;;;;;;10.85;4.35;;;12.50;99.90;;;;;;5110155;28;20475;-56
2022/02/08 10:06:43;;;;;;;12.98;11.27;;;13.10;99.90;;;;;;5110750;28;20795;-56
2022/02/08 10:09:09;;;;;;;13.20;8.75;;;13.70;99.90;;;;;;5109329;28;20429;-56
2022/02/08 10:11:58;;;;;;;10.65;8.57;;;12.40;99.90;;;;;;5110772;28;20429;-58
2022/02/08 10:20:32;;;;;;;6.80;3.00;;;10.20;99.90;;;;;;5089765;28;20502;-58
2022/02/08 10:22:40;;;;;;;9.88;3.10;;;9.90;99.90;;;;;;5089485;28;20449;-58
2022/02/08 10:25:19;;;;;;;25.37;12.40;;;10.00;99.90;;;;;;5089281;28;20838;-58
2022/02/08 10:28:01;;;;;;;12.35;3.30;;;10.50;99.90;;;;;;5089811;28;20815;-58
2022/02/08 10:30:47;;;;;;;9.05;2.80;;;11.10;99.90;;;;;;5090280;28;20439;-58
2022/02/08 10:38:43;;;;;;;10.47;4.97;;;12.70;99.90;;;;;;5089991;28;20377;-56
2022/02/08 10:41:21;;;;;;;10.63;3.85;;;13.60;99.90;;;;;;5088808;28;21026;-56
2022/02/08 10:44:01;;;;;;;11.73;8.15;;;14.30;99.90;;;;;;5089793;28;20416;-56
2022/02/08 10:46:28;;;;;;;10.37;8.13;;;13.70;99.90;;;;;;5089505;28;20496;-56
2022/02/08 10:49:19;;;;;;;13.60;12.00;;;14.30;99.90;;;;;;5089188;28;20382;-58
2022/02/08 10:54:39;;;;;;;7.28;2.20;;;16.00;99.90;;;;;;5088694;28;20505;-58
2022/02/08 10:57:09;;;;;;;7.20;1.83;;;15.60;99.90;;;;;;5088526;28;20862;-58
2022/02/08 10:59:41;;;;;;;8.27;2.33;;;14.90;99.90;;;;;;5089882;28;20440;-57
2022/02/08 11:02:22;;;;;;;9.60;2.22;;;13.50;99.90;;;;;;5088858;28;20416;-57
2022/02/08 11:07:44;;;;;;;8.48;2.20;;;12.00;99.90;;;;;;5089774;28;20390;-57
2022/02/08 11:18:39;;;;;;;8.03;2.10;;;13.30;99.90;;;;;;5088549;28;20491;-57
2022/02/08 11:24:06;;;;;;;7.20;1.70;;;12.40;99.90;;;;;;5089369;28;20488;-57
2022/02/08 11:26:42;;;;;;;8.60;1.50;;;12.30;99.90;;;;;;5089169;28;20397;-57
2022/02/08 11:29:09;;;;;;;7.80;1.60;;;12.10;99.90;;;;;;5088938;28;20386;-57
2022/02/08 11:31:40;;;;;;;6.33;1.17;;;11.90;99.90;;;;;;5089900;28;20381;-57
2022/02/08 11:39:01;;;;;;;7.95;1.40;;;11.70;99.90;;;;;;5088781;28;20453;-57
2022/02/08 11:40:25;;;;;;;7.90;1.40;;;11.20;99.90;;;;;;5089036;28;20481;-57
2022/02/08 11:48:07;;;;;;;7.78;1.40;;;11.00;99.90;;;;;;5089045;28;20394;-58
2022/02/08 11:53:29;;;;;;;5.30;0.82;;;10.70;99.90;;;;;;5088245;28;20559;-57
2022/02/08 11:58:56;;;;;;;5.53;1.20;;;10.50;99.90;;;;;;5089325;28;20378;-57
2022/02/08 12:04:53;;;;;;;6.93;1.30;;;10.40;99.90;;;;;;5091349;28;20796;-57
2022/02/08 12:07:12;;;;;;;5.85;1.10;;;10.50;99.90;;;;;;5091536;28;20439;-58
2022/02/08 12:09:52;;;;;;;8.30;1.17;;;10.40;99.90;;;;;;5092555;28;20378;-57
2022/02/08 12:55:48;;;;;;;6.30;1.52;;;10.40;99.90;;;;;;5091575;28;20382;-57
2022/02/08 12:58:34;;;;;;;8.30;1.27;;;10.50;99.90;;;;;;5088946;28;20382;-57
2022/02/08 13:01:52;;;;;;;5.30;1.30;;;10.50;99.90;;;;;;5089740;28;20723;-57
2022/02/08 14:02:03;;;;;;;7.90;1.70;;;10.00;99.90;;;;;;5089887;28;20437;-57
2022/02/08 14:09:49;;;;;;;7.20;1.10;;;9.80;99.90;;;;;;5090638;28;20911;-58
2022/02/08 14:25:33;;;;;;;5.40;0.90;;;9.80;99.90;;;;;;5090468;28;20389;-57
2022/02/08 14:30:56;;;;;;;6.80;1.20;;;9.70;99.90;;;;;;5090020;28;20451;-57
2022/02/08 15:05:24;;;;;;;4.97;0.90;;;9.50;99.90;;;;;;5085452;28;20398;-58
2022/02/08 15:08:39;;;;;;;5.18;1.10;;;9.70;99.90;;;;;;5087094;28;20417;-58
2022/02/08 15:11:08;;;;;;;4.80;0.80;;;9.70;99.90;;;;;;5087804;28;20405;-58
2022/02/08 15:13:35;;;;;;;5.78;0.90;;;9.60;99.90;;;;;;5084748;28;20398;-55
2022/02/08 15:18:40;;;;;;;6.20;0.90;;;9.40;99.90;;;;;;5087780;28;20463;-56
2022/02/08 15:21:10;;;;;;;5.60;1.20;;;9.40;99.90;;;;;;5087919;28;20497;-56
2022/02/08 15:23:36;;;;;;;5.45;1.10;;;9.50;99.90;;;;;;5089697;28;20409;-56
2022/02/08 15:26:03;;;;;;;4.60;0.90;;;9.30;99.90;;;;;;5088731;28;20954;-56
2022/02/08 15:28:32;;;;;;;6.03;1.00;;;9.30;99.90;;;;;;5098267;28;20387;-56
2022/02/08 15:30:58;;;;;;;9.80;2.10;;;9.40;99.90;;;;;;5102275;28;20403;-56
2022/02/08 15:33:27;;;;;;;7.10;1.80;;;9.40;99.90;;;;;;5093778;28;20393;-56
2022/02/08 15:35:53;;;;;;;7.45;1.60;;;9.60;99.90;;;;;;5105579;28;20394;-56
2022/02/08 15:38:21;;;;;;;8.38;1.50;;;9.60;99.90;;;;;;5084759;28;20376;-55
2022/02/08 15:40:47;;;;;;;6.82;1.40;;;9.50;99.90;;;;;;5110114;28;20459;-56
2022/02/08 15:43:14;;;;;;;5.10;1.20;;;9.50;99.90;;;;;;5100019;28;20494;-56
2022/02/08 15:45:48;;;;;;;5.20;1.30;;;9.50;99.90;;;;;;5081235;28;20406;-56
2022/02/08 15:48:20;;;;;;;8.00;1.30;;;9.50;99.90;;;;;;5087102;28;20478;-56
2022/02/08 15:50:54;;;;;;;9.10;1.30;;;9.40;99.90;;;;;;5082765;28;20393;-56
2022/02/08 15:56:03;;;;;;;5.27;1.20;;;9.40;99.90;;;;;;5092757;28;20389;-56
2022/02/08 16:14:22;;;;;;;4.05;0.90;;;8.80;99.90;;;;;;5091415;28;20789;-56
2022/02/08 16:27:52;;;;;;;4.63;1.30;;;8.80;99.90;;;;;;5088747;28;20428;-55
2022/02/08 16:33:43;;;;;;;5.05;1.90;;;9.00;99.90;;;;;;5086553;28;20409;-57
2022/02/08 16:57:57;;;;;;;20.60;8.60;;;9.30;99.90;;;;;;5084670;28;20571;-57
2022/02/08 17:00:26;;;;;;;13.45;5.25;;;9.30;99.90;;;;;;5083557;28;20454;-58
2022/02/08 17:02:57;;;;;;;12.63;5.20;;;9.30;99.90;;;;;;5071686;28;20407;-57
2022/02/08 17:05:23;;;;;;;8.73;3.30;;;9.40;99.90;;;;;;5070515;28;20376;-57
2022/02/08 17:07:50;;;;;;;7.43;2.90;;;9.30;99.90;;;;;;5082652;28;20390;-57
2022/02/08 17:10:31;;;;;;;8.40;2.50;;;9.30;99.90;;;;;;5089211;28;20746;-57
2022/02/08 17:13:11;;;;;;;6.57;1.33;;;9.30;99.90;;;;;;5076652;28;20399;-59
2022/02/08 17:48:08;;;;;;;8.32;2.10;;;9.10;99.90;;;;;;5085876;28;21004;-58
2022/02/08 17:50:34;;;;;;;10.73;3.03;;;9.20;99.90;;;;;;5080929;28;20494;-58
2022/02/08 17:53:00;;;;;;;8.02;3.00;;;9.30;99.90;;;;;;5090555;28;20455;-59
2022/02/08 17:55:26;;;;;;;8.93;3.13;;;9.40;99.90;;;;;;5090521;28;20417;-58
2022/02/08 17:57:52;;;;;;;11.00;3.20;;;9.50;99.90;;;;;;5086882;28;20393;-58
2022/02/08 18:00:19;;;;;;;8.57;2.40;;;9.50;99.90;;;;;;5087637;28;20506;-58
2022/02/08 18:02:45;;;;;;;8.55;2.50;;;9.50;99.90;;;;;;5086102;28;20861;-58
2022/02/08 18:05:12;;;;;;;9.13;2.50;;;9.40;99.90;;;;;;5089325;28;20378;-58
2022/02/08 18:07:38;;;;;;;9.50;2.60;;;9.50;99.90;;;;;;5089921;28;20386;-59
2022/02/08 18:10:05;;;;;;;8.97;2.70;;;9.40;99.90;;;;;;5088127;28;20440;-58
2022/02/08 18:12:31;;;;;;;8.20;2.35;;;9.40;99.90;;;;;;5084801;28;20990;-58
2022/02/08 18:15:00;;;;;;;10.23;2.70;;;9.40;99.90;;;;;;5086940;28;20399;-58
2022/02/08 18:17:33;;;;;;;10.77;2.58;;;9.50;99.90;;;;;;5084381;28;20484;-58
2022/02/08 18:20:08;;;;;;;11.68;2.90;;;9.50;99.90;;;;;;5081457;28;20406;-58
2022/02/08 19:08:40;;;;;;;11.43;3.40;;;8.00;99.90;;;;;;5084411;28;20421;-54
2022/02/08 19:21:33;;;;;;;15.73;5.80;;;7.90;99.90;;;;;;5084133;28;20878;-57
2022/02/08 19:23:56;;;;;;;12.45;4.90;;;8.00;99.90;;;;;;5083936;28;20410;-57
2022/02/08 19:26:25;;;;;;;13.10;4.80;;;8.10;99.90;;;;;;5082123;28;20383;-57
2022/02/08 19:28:53;;;;;;;11.45;4.50;;;8.10;99.90;;;;;;5076606;28;20395;-57
2022/02/08 19:31:22;;;;;;;22.52;8.25;;;8.10;99.90;;;;;;5079788;28;20394;-58
2022/02/08 19:33:49;;;;;;;15.43;5.72;;;8.10;99.90;;;;;;5080755;28;20387;-57
2022/02/08 19:36:16;;;;;;;12.38;5.00;;;8.20;99.90;;;;;;5080388;28;20398;-57
2022/02/08 19:38:48;;;;;;;15.68;5.38;;;8.20;99.90;;;;;;5082913;28;20423;-57
2022/02/08 19:41:17;;;;;;;15.13;5.10;;;8.20;99.90;;;;;;5079007;28;20909;-58
2022/02/08 19:43:43;;;;;;;9.30;4.22;;;8.20;99.90;;;;;;5071142;28;20502;-58
2022/02/08 19:46:09;;;;;;;12.03;4.27;;;8.20;99.90;;;;;;5079853;28;20512;-57
2022/02/08 19:48:35;;;;;;;13.40;3.83;;;8.10;99.90;;;;;;5087375;28;20448;-57
2022/02/08 19:51:00;;;;;;;9.27;3.90;;;8.20;99.90;;;;;;5076512;28;20466;-57
2022/02/08 19:53:29;;;;;;;11.15;4.10;;;8.10;99.90;;;;;;5071208;28;20847;-58
2022/02/08 19:56:07;;;;;;;15.07;4.65;;;8.00;99.90;;;;;;5081778;28;20411;-58
2022/02/08 19:58:33;;;;;;;14.00;4.27;;;8.00;99.90;;;;;;5084249;28;20373;-58
2022/02/08 20:01:09;;;;;;;11.95;4.80;;;8.00;99.90;;;;;;5075705;28;20474;-58
2022/02/08 20:03:39;;;;;;;16.40;4.30;;;8.00;99.90;;;;;;5080314;28;20445;-57
2022/02/08 20:06:05;;;;;;;9.85;4.80;;;8.00;99.90;;;;;;5083122;28;20738;-58
2022/02/08 20:08:31;;;;;;;15.27;4.95;;;8.10;99.90;;;;;;5079680;28;20392;-58
2022/02/08 20:10:56;;;;;;;12.63;4.90;;;8.10;99.90;;;;;;5073751;28;20770;-58
2022/02/08 20:13:27;;;;;;;12.77;4.30;;;8.00;99.90;;;;;;5083716;28;21070;-55
2022/02/08 20:15:56;;;;;;;11.43;4.70;;;7.90;99.90;;;;;;5085880;28;20386;-56
2022/02/08 20:18:22;;;;;;;11.60;5.15;;;7.90;99.90;;;;;;5082575;28;20404;-55
2022/02/08 20:20:49;;;;;;;11.35;5.68;;;7.90;99.90;;;;;;5083785;28;20431;-58
2022/02/08 20:23:17;;;;;;;13.00;5.32;;;7.90;99.90;;;;;;5084453;28;20422;-58
2022/02/08 20:25:48;;;;;;;10.52;5.35;;;7.90;99.90;;;;;;5089814;28;20446;-58
2022/02/08 20:28:21;;;;;;;12.32;5.50;;;7.80;99.90;;;;;;5086891;28;20388;-57
2022/02/08 20:30:47;;;;;;;13.98;5.10;;;8.00;99.90;;;;;;5089622;28;20422;-58
2022/02/08 20:33:13;;;;;;;8.70;4.70;;;8.00;99.90;;;;;;5088118;28;20410;-58
2022/02/08 20:35:40;;;;;;;11.98;5.25;;;8.10;99.90;;;;;;5089982;28;20382;-58
2022/02/08 20:38:06;;;;;;;18.48;6.63;;;8.10;99.90;;;;;;5088878;28;20386;-57
2022/02/08 20:40:37;;;;;;;11.02;5.10;;;8.10;99.90;;;;;;5088221;28;20402;-57
2022/02/08 20:43:05;;;;;;;12.30;6.40;;;8.20;99.90;;;;;;5087968;28;20402;-57
2022/02/08 20:45:31;;;;;;;14.63;6.53;;;8.00;99.90;;;;;;5085070;28;20531;-57
2022/02/08 20:48:00;;;;;;;18.60;6.20;;;7.90;99.90;;;;;;5087586;28;20378;-55
2022/02/08 20:50:26;;;;;;;14.20;5.55;;;7.80;99.90;;;;;;5086540;28;21039;-56
2022/02/08 20:52:56;;;;;;;13.88;5.50;;;7.80;99.90;;;;;;5081685;28;20489;-56
2022/02/08 20:55:26;;;;;;;15.10;5.30;;;7.80;99.90;;;;;;5087024;28;20477;-56
2022/02/08 20:58:01;;;;;;;12.02;5.55;;;7.80;99.90;;;;;;5084376;28;20773;-56
2022/02/08 21:00:33;;;;;;;12.98;5.18;;;7.70;99.90;;;;;;5088981;28;20918;-56